Gokceada 1 — TCSZ8 — position and weather

sailwx.info

Track history (hours):
 
Tides and Currents Weather Stations Pressure Air Temp Water Temp Dewpoint Dewpoint Depression Visibility Wind Speed Wind Dir Waves Ship Positions

Gokceada 1

Last reported at 2018-Jun-21 16:55 UTC. Time now 2018-Jun-21 18:09 UTC.
Position N 40°13' E 026°10'.

Length 84 m; draft 4.1 m.

MMSI: 271001031.

Date/timePositionNaut miles runAvg speedWind from/ knotsBaromVisibWave heightAir tempDewpointWater temp
2018-Jun-21 16:55N 40°13' E 026°10'512.3
2018-Jun-21 16:30N 40°13' E 026°04'1 0.4
2018-Jun-21 14:54N 40°13' E 026°03'6 3.2
2018-Jun-21 13:03N 40°12' E 026°11'211.9
2018-Jun-21 12:51N 40°13' E 026°08'5 2.5
2018-Jun-21 10:58N 40°13' E 026°02'5 2.5
2018-Jun-21 08:50N 40°12' E 026°09'412.2
2018-Jun-21 08:30N 40°13' E 026°04'2 1.5
2018-Jun-21 07:08N 40°13' E 026°01'112.4
2018-Jun-21 07:00N 40°13' E 026°03'5 2.1
2018-Jun-21 04:51N 40°12' E 026°09'411.7
2018-Jun-21 04:30N 40°13' E 026°04'3 0.3
2018-Jun-20 19:03N 40°14' E 026°00'112.4
2018-Jun-20 18:59N 40°14' E 026°01'5 0.5
2018-Jun-20 08:43N 40°13' E 026°08'312.4
2018-Jun-20 08:28N 40°13' E 026°04'3 2.7
2018-Jun-20 07:25N 40°14' E 026°00'9 3.8
2018-Jun-20 04:59N 40°12' E 026°12'612.0
2018-Jun-20 04:30N 40°13' E 026°04'2 0.2
2018-Jun-19 18:59N 40°13' E 026°02'1 0.1
2018-Jun-19 11:01N 40°14' E 026°01'011.6
2018-Jun-19 10:59N 40°14' E 026°01'5 2.3
2018-Jun-19 08:49N 40°13' E 026°08'412.4
2018-Jun-19 08:30N 40°13' E 026°03'2 1.6
2018-Jun-19 07:06N 40°14' E 026°00'112.0
2018-Jun-19 07:00N 40°14' E 026°01'9 4.8
2018-Jun-19 05:08N 40°12' E 026°13'212.1
2018-Jun-19 04:59N 40°12' E 026°11'612.1
2018-Jun-19 04:30N 40°13' E 026°03'2 0.3
2018-Jun-18 19:04N 40°14' E 026°00'112.0
2018-Jun-18 19:00N 40°14' E 026°01'8 2.0
2018-Jun-18 14:58N 40°12' E 026°11'612.8
2018-Jun-18 14:30N 40°13' E 026°04'4 3.3
2018-Jun-18 13:15N 40°14' E 025°59'310.7
2018-Jun-18 13:00N 40°14' E 026°02'4 2.0
2018-Jun-18 10:50N 40°13' E 026°08'413.1
2018-Jun-18 10:30N 40°13' E 026°02'1 0.4
2018-Jun-18 09:04N 40°13' E 026°01'111.7
2018-Jun-18 09:00N 40°13' E 026°02'5 2.5
2018-Jun-18 06:57N 40°12' E 026°09'5 2.8
2018-Jun-18 05:04N 40°13' E 026°02'111.7
2018-Jun-18 05:00N 40°13' E 026°03'6 0.9
2018-Jun-17 22:28N 40°13' E 026°10'612.6
2018-Jun-17 21:59N 40°13' E 026°03'2 3.1
2018-Jun-17 21:12N 40°14' E 025°60'212.1
2018-Jun-17 21:00N 40°14' E 026°03'8 4.4
2018-Jun-17 19:14N 40°12' E 026°13'412.2
2018-Jun-17 18:56N 40°13' E 026°08'5 2.7
2018-Jun-17 17:07N 40°14' E 026°01'212.0
2018-Jun-17 16:55N 40°13' E 026°04'4 1.7
2018-Jun-17 14:52N 40°12' E 026°09'6 3.4
2018-Jun-17 13:05N 40°14' E 026°01'111.6
2018-Jun-17 13:00N 40°13' E 026°03'4 0.7
2018-Jun-17 06:48N 40°12' E 026°08'6 3.4
2018-Jun-17 05:04N 40°14' E 026°00'112.0
2018-Jun-17 05:00N 40°14' E 026°01'5 2.2
2018-Jun-17 02:47N 40°13' E 026°08'3 0.4
2018-Jun-16 19:04N 40°12' E 026°11'212.8
2018-Jun-16 18:55N 40°12' E 026°09'5 2.8
2018-Jun-16 17:00N 40°14' E 026°02'7 3.7
2018-Jun-16 14:58N 40°12' E 026°11'612.5
2018-Jun-16 14:30N 40°13' E 026°04'3 2.3
2018-Jun-16 13:06N 40°14' E 025°60'111.7
2018-Jun-16 13:00N 40°14' E 026°01'6 3.1
2018-Jun-16 11:05N 40°12' E 026°09'212.6
2018-Jun-16 10:57N 40°12' E 026°07'5 2.9
2018-Jun-16 09:14N 40°14' E 026°01'7 2.8
2018-Jun-16 06:51N 40°12' E 026°09'513.1
2018-Jun-16 06:30N 40°13' E 026°03'1 0.9
2018-Jun-16 05:04N 40°14' E 026°02'111.3
2018-Jun-16 05:00N 40°14' E 026°03'4 1.7
2018-Jun-16 02:43N 40°13' E 026°08'5 0.8
2018-Jun-15 21:05N 40°13' E 026°02'311.8
2018-Jun-15 20:50N 40°13' E 026°06'5 2.4
2018-Jun-15 18:53N 40°12' E 026°11'513.5
2018-Jun-15 18:29N 40°13' E 026°05'3 2.1
2018-Jun-15 17:15N 40°14' E 026°01'311.0
2018-Jun-15 16:59N 40°13' E 026°05'6 3.8
2018-Jun-15 15:18N 40°12' E 026°13'413.0
2018-Jun-15 15:01N 40°12' E 026°09'6 2.9
2018-Jun-15 13:05N 40°13' E 026°01'111.1
2018-Jun-15 13:00N 40°13' E 026°03'7 3.5
2018-Jun-15 10:56N 40°12' E 026°12'613.3
2018-Jun-15 10:28N 40°13' E 026°04'3 2.5
2018-Jun-15 09:11N 40°14' E 026°00'411.2
2018-Jun-15 08:50N 40°14' E 026°05'4 1.0
2018-Jun-15 05:06N 40°14' E 026°00'111.5
2018-Jun-15 05:00N 40°14' E 026°02'1111.5
2018-Jun-15 04:03N 40°12' E 026°16'0 0.1
2018-Jun-15 03:32N 40°12' E 026°16'14 2.1
2018-Jun-14 21:09N 40°14' E 025°58'211.6
2018-Jun-14 21:00N 40°14' E 026°00'8 4.0
2018-Jun-14 18:54N 40°12' E 026°11'513.2
2018-Jun-14 18:30N 40°13' E 026°04'5 3.6
2018-Jun-14 17:10N 40°14' E 025°58'211.8
2018-Jun-14 17:00N 40°14' E 026°01'9 4.8
2018-Jun-14 15:02N 40°12' E 026°13'312.7
2018-Jun-14 14:48N 40°12' E 026°09'412.8
2018-Jun-14 14:30N 40°13' E 026°04'2 1.5
2018-Jun-14 13:04N 40°13' E 026°01'112.1
2018-Jun-14 12:58N 40°13' E 026°03'1012.1
2018-Jun-14 12:09N 40°12' E 026°16'6 4.1
2018-Jun-14 10:40N 40°12' E 026°08'212.6
2018-Jun-14 10:29N 40°13' E 026°05'3 1.9
2018-Jun-14 08:55N 40°14' E 026°01'5 2.2
2018-Jun-14 06:42N 40°12' E 026°08'312.9
2018-Jun-14 06:27N 40°13' E 026°04'2 1.1
2018-Jun-14 05:00N 40°13' E 026°02'611.8
2018-Jun-14 04:30N 40°13' E 026°09'1 0.4
2018-Jun-14 02:43N 40°13' E 026°08'313.1
2018-Jun-14 02:30N 40°13' E 026°05'3 0.5
2018-Jun-13 20:32N 40°13' E 026°01'011.1
2018-Jun-13 20:30N 40°13' E 026°02'611.4
2018-Jun-13 19:57N 40°13' E 026°10'5 6.8
2018-Jun-13 19:15N 40°12' E 026°16'310.4
2018-Jun-13 19:00N 40°12' E 026°12'713.1
2018-Jun-13 18:29N 40°13' E 026°04'4 3.6
2018-Jun-13 17:19N 40°14' E 025°59'411.3
2018-Jun-13 17:00N 40°14' E 026°03'6 3.0
2018-Jun-13 14:54N 40°12' E 026°11'613.4
2018-Jun-13 14:28N 40°13' E 026°03'2 1.2
2018-Jun-13 13:09N 40°13' E 026°01'211.6
2018-Jun-13 13:00N 40°13' E 026°04'4 1.6
2018-Jun-13 10:45N 40°13' E 026°08'313.1
2018-Jun-13 10:30N 40°13' E 026°04'2 1.6
2018-Jun-13 09:20N 40°13' E 026°02'411.4
2018-Jun-13 08:59N 40°13' E 026°07'5 2.6
2018-Jun-13 07:03N 40°12' E 026°14'112.9
2018-Jun-13 06:57N 40°12' E 026°12'613.0
2018-Jun-13 06:27N 40°13' E 026°03'2 1.6
2018-Jun-13 05:12N 40°14' E 026°01'211.3
2018-Jun-13 05:00N 40°13' E 026°04'711.9
2018-Jun-13 04:27N 40°13' E 026°12'3 6.6
2018-Jun-13 04:01N 40°12' E 026°16'0 0.0
2018-Jun-12 21:37N 40°12' E 026°16'12 4.6
2018-Jun-12 19:04N 40°14' E 026°01'111.4
2018-Jun-12 19:00N 40°13' E 026°02'811.7
2018-Jun-12 18:18N 40°13' E 026°12'3 6.9
2018-Jun-12 17:54N 40°12' E 026°16'0 0.0
2018-Jun-12 17:31N 40°12' E 026°16'5 7.8
2018-Jun-12 16:56N 40°13' E 026°10'612.9
2018-Jun-12 16:30N 40°13' E 026°03'1 0.8
2018-Jun-12 15:27N 40°13' E 026°02'5 2.7
2018-Jun-12 13:39N 40°12' E 026°08'212.8
2018-Jun-12 13:29N 40°13' E 026°05'2 1.7
2018-Jun-12 12:08N 40°13' E 026°03'211.4
2018-Jun-12 12:00N 40°13' E 026°05'4 3.0
2018-Jun-12 10:36N 40°12' E 026°10'112.9
2018-Jun-12 10:30N 40°12' E 026°08'6 4.4
2018-Jun-12 09:14N 40°13' E 026°01'312.1
2018-Jun-12 09:00N 40°13' E 026°05'911.8
2018-Jun-12 08:16N 40°12' E 026°16'0 0.0
2018-Jun-12 07:16N 40°12' E 026°16'611.9
2018-Jun-12 06:46N 40°13' E 026°08'312.8
2018-Jun-12 06:30N 40°13' E 026°04'2 1.1
2018-Jun-12 05:06N 40°13' E 026°02'111.5
2018-Jun-12 05:00N 40°13' E 026°03'8 0.8
2018-Jun-11 19:11N 40°12' E 026°13'212.3
2018-Jun-11 19:00N 40°13' E 026°10'612.1
2018-Jun-11 18:30N 40°13' E 026°03'1 0.8
2018-Jun-11 17:04N 40°14' E 026°01'112.1
2018-Jun-11 16:57N 40°13' E 026°03'  
Track history (hours):
 
Tides and Currents Weather Stations Pressure Air Temp Water Temp Dewpoint Dewpoint Depression Visibility Wind Speed Wind Dir Waves Ship Positions

Gokceada 1

Last reported at 2018-Jun-21 16:55 UTC. Time now 2018-Jun-21 18:09 UTC.
Position N 40°13' E 026°10'.

Length 84 m; draft 4.1 m.

MMSI: 271001031.

Date/timePositionNaut miles runAvg speedWind from/ knotsBaromVisibWave heightAir tempDewpointWater temp
2018-Jun-21 16:55N 40°13' E 026°10'512.3
2018-Jun-21 16:30N 40°13' E 026°04'1 0.4
2018-Jun-21 14:54N 40°13' E 026°03'6 3.2
2018-Jun-21 13:03N 40°12' E 026°11'211.9
2018-Jun-21 12:51N 40°13' E 026°08'5 2.5
2018-Jun-21 10:58N 40°13' E 026°02'5 2.5
2018-Jun-21 08:50N 40°12' E 026°09'412.2
2018-Jun-21 08:30N 40°13' E 026°04'2 1.5
2018-Jun-21 07:08N 40°13' E 026°01'112.4
2018-Jun-21 07:00N 40°13' E 026°03'5 2.1
2018-Jun-21 04:51N 40°12' E 026°09'411.7
2018-Jun-21 04:30N 40°13' E 026°04'3 0.3
2018-Jun-20 19:03N 40°14' E 026°00'112.4
2018-Jun-20 18:59N 40°14' E 026°01'5 0.5
2018-Jun-20 08:43N 40°13' E 026°08'312.4
2018-Jun-20 08:28N 40°13' E 026°04'3 2.7
2018-Jun-20 07:25N 40°14' E 026°00'9 3.8
2018-Jun-20 04:59N 40°12' E 026°12'612.0
2018-Jun-20 04:30N 40°13' E 026°04'2 0.2
2018-Jun-19 18:59N 40°13' E 026°02'1 0.1
2018-Jun-19 11:01N 40°14' E 026°01'011.6
2018-Jun-19 10:59N 40°14' E 026°01'5 2.3
2018-Jun-19 08:49N 40°13' E 026°08'412.4
2018-Jun-19 08:30N 40°13' E 026°03'2 1.6
2018-Jun-19 07:06N 40°14' E 026°00'112.0
2018-Jun-19 07:00N 40°14' E 026°01'9 4.8
2018-Jun-19 05:08N 40°12' E 026°13'212.1
2018-Jun-19 04:59N 40°12' E 026°11'612.1
2018-Jun-19 04:30N 40°13' E 026°03'2 0.3
2018-Jun-18 19:04N 40°14' E 026°00'112.0
2018-Jun-18 19:00N 40°14' E 026°01'8 2.0
2018-Jun-18 14:58N 40°12' E 026°11'612.8
2018-Jun-18 14:30N 40°13' E 026°04'4 3.3
2018-Jun-18 13:15N 40°14' E 025°59'310.7
2018-Jun-18 13:00N 40°14' E 026°02'4 2.0
2018-Jun-18 10:50N 40°13' E 026°08'413.1
2018-Jun-18 10:30N 40°13' E 026°02'1 0.4
2018-Jun-18 09:04N 40°13' E 026°01'111.7
2018-Jun-18 09:00N 40°13' E 026°02'5 2.5
2018-Jun-18 06:57N 40°12' E 026°09'5 2.8
2018-Jun-18 05:04N 40°13' E 026°02'111.7
2018-Jun-18 05:00N 40°13' E 026°03'6 0.9
2018-Jun-17 22:28N 40°13' E 026°10'612.6
2018-Jun-17 21:59N 40°13' E 026°03'2 3.1
2018-Jun-17 21:12N 40°14' E 025°60'212.1
2018-Jun-17 21:00N 40°14' E 026°03'8 4.4
2018-Jun-17 19:14N 40°12' E 026°13'412.2
2018-Jun-17 18:56N 40°13' E 026°08'5 2.7
2018-Jun-17 17:07N 40°14' E 026°01'212.0
2018-Jun-17 16:55N 40°13' E 026°04'4 1.7
2018-Jun-17 14:52N 40°12' E 026°09'6 3.4
2018-Jun-17 13:05N 40°14' E 026°01'111.6
2018-Jun-17 13:00N 40°13' E 026°03'4 0.7
2018-Jun-17 06:48N 40°12' E 026°08'6 3.4
2018-Jun-17 05:04N 40°14' E 026°00'112.0
2018-Jun-17 05:00N 40°14' E 026°01'5 2.2
2018-Jun-17 02:47N 40°13' E 026°08'3 0.4
2018-Jun-16 19:04N 40°12' E 026°11'212.8
2018-Jun-16 18:55N 40°12' E 026°09'5 2.8
2018-Jun-16 17:00N 40°14' E 026°02'7 3.7
2018-Jun-16 14:58N 40°12' E 026°11'612.5
2018-Jun-16 14:30N 40°13' E 026°04'3 2.3
2018-Jun-16 13:06N 40°14' E 025°60'111.7
2018-Jun-16 13:00N 40°14' E 026°01'6 3.1
2018-Jun-16 11:05N 40°12' E 026°09'212.6
2018-Jun-16 10:57N 40°12' E 026°07'5 2.9
2018-Jun-16 09:14N 40°14' E 026°01'7 2.8
2018-Jun-16 06:51N 40°12' E 026°09'513.1
2018-Jun-16 06:30N 40°13' E 026°03'1 0.9
2018-Jun-16 05:04N 40°14' E 026°02'111.3
2018-Jun-16 05:00N 40°14' E 026°03'4 1.7
2018-Jun-16 02:43N 40°13' E 026°08'5 0.8
2018-Jun-15 21:05N 40°13' E 026°02'311.8
2018-Jun-15 20:50N 40°13' E 026°06'5 2.4
2018-Jun-15 18:53N 40°12' E 026°11'513.5
2018-Jun-15 18:29N 40°13' E 026°05'3 2.1
2018-Jun-15 17:15N 40°14' E 026°01'311.0
2018-Jun-15 16:59N 40°13' E 026°05'6 3.8
2018-Jun-15 15:18N 40°12' E 026°13'413.0
2018-Jun-15 15:01N 40°12' E 026°09'6 2.9
2018-Jun-15 13:05N 40°13' E 026°01'111.1
2018-Jun-15 13:00N 40°13' E 026°03'7 3.5
2018-Jun-15 10:56N 40°12' E 026°12'613.3
2018-Jun-15 10:28N 40°13' E 026°04'3 2.5
2018-Jun-15 09:11N 40°14' E 026°00'411.2
2018-Jun-15 08:50N 40°14' E 026°05'4 1.0
2018-Jun-15 05:06N 40°14' E 026°00'111.5
2018-Jun-15 05:00N 40°14' E 026°02'1111.5
2018-Jun-15 04:03N 40°12' E 026°16'0 0.1
2018-Jun-15 03:32N 40°12' E 026°16'14 2.1
2018-Jun-14 21:09N 40°14' E 025°58'211.6
2018-Jun-14 21:00N 40°14' E 026°00'8 4.0
2018-Jun-14 18:54N 40°12' E 026°11'513.2
2018-Jun-14 18:30N 40°13' E 026°04'5 3.6
2018-Jun-14 17:10N 40°14' E 025°58'211.8
2018-Jun-14 17:00N 40°14' E 026°01'9 4.8
2018-Jun-14 15:02N 40°12' E 026°13'312.7
2018-Jun-14 14:48N 40°12' E 026°09'412.8
2018-Jun-14 14:30N 40°13' E 026°04'2 1.5
2018-Jun-14 13:04N 40°13' E 026°01'112.1
2018-Jun-14 12:58N 40°13' E 026°03'1012.1
2018-Jun-14 12:09N 40°12' E 026°16'6 4.1
2018-Jun-14 10:40N 40°12' E 026°08'212.6
2018-Jun-14 10:29N 40°13' E 026°05'3 1.9
2018-Jun-14 08:55N 40°14' E 026°01'5 2.2
2018-Jun-14 06:42N 40°12' E 026°08'312.9
2018-Jun-14 06:27N 40°13' E 026°04'2 1.1
2018-Jun-14 05:00N 40°13' E 026°02'611.8
2018-Jun-14 04:30N 40°13' E 026°09'1 0.4
2018-Jun-14 02:43N 40°13' E 026°08'313.1
2018-Jun-14 02:30N 40°13' E 026°05'3 0.5
2018-Jun-13 20:32N 40°13' E 026°01'011.1
2018-Jun-13 20:30N 40°13' E 026°02'611.4
2018-Jun-13 19:57N 40°13' E 026°10'5 6.8
2018-Jun-13 19:15N 40°12' E 026°16'310.4
2018-Jun-13 19:00N 40°12' E 026°12'713.1
2018-Jun-13 18:29N 40°13' E 026°04'4 3.6
2018-Jun-13 17:19N 40°14' E 025°59'411.3
2018-Jun-13 17:00N 40°14' E 026°03'6 3.0
2018-Jun-13 14:54N 40°12' E 026°11'613.4
2018-Jun-13 14:28N 40°13' E 026°03'2 1.2
2018-Jun-13 13:09N 40°13' E 026°01'211.6
2018-Jun-13 13:00N 40°13' E 026°04'4 1.6
2018-Jun-13 10:45N 40°13' E 026°08'313.1
2018-Jun-13 10:30N 40°13' E 026°04'2 1.6
2018-Jun-13 09:20N 40°13' E 026°02'411.4
2018-Jun-13 08:59N 40°13' E 026°07'5 2.6
2018-Jun-13 07:03N 40°12' E 026°14'112.9
2018-Jun-13 06:57N 40°12' E 026°12'613.0
2018-Jun-13 06:27N 40°13' E 026°03'2 1.6
2018-Jun-13 05:12N 40°14' E 026°01'211.3
2018-Jun-13 05:00N 40°13' E 026°04'711.9
2018-Jun-13 04:27N 40°13' E 026°12'3 6.6
2018-Jun-13 04:01N 40°12' E 026°16'0 0.0
2018-Jun-12 21:37N 40°12' E 026°16'12 4.6
2018-Jun-12 19:04N 40°14' E 026°01'111.4
2018-Jun-12 19:00N 40°13' E 026°02'811.7
2018-Jun-12 18:18N 40°13' E 026°12'3 6.9
2018-Jun-12 17:54N 40°12' E 026°16'0 0.0
2018-Jun-12 17:31N 40°12' E 026°16'5 7.8
2018-Jun-12 16:56N 40°13' E 026°10'612.9
2018-Jun-12 16:30N 40°13' E 026°03'1 0.8
2018-Jun-12 15:27N 40°13' E 026°02'5 2.7
2018-Jun-12 13:39N 40°12' E 026°08'212.8
2018-Jun-12 13:29N 40°13' E 026°05'2 1.7
2018-Jun-12 12:08N 40°13' E 026°03'211.4
2018-Jun-12 12:00N 40°13' E 026°05'4 3.0
2018-Jun-12 10:36N 40°12' E 026°10'112.9
2018-Jun-12 10:30N 40°12' E 026°08'6 4.4
2018-Jun-12 09:14N 40°13' E 026°01'312.1
2018-Jun-12 09:00N 40°13' E 026°05'911.8
2018-Jun-12 08:16N 40°12' E 026°16'0 0.0
2018-Jun-12 07:16N 40°12' E 026°16'611.9
2018-Jun-12 06:46N 40°13' E 026°08'312.8
2018-Jun-12 06:30N 40°13' E 026°04'2 1.1
2018-Jun-12 05:06N 40°13' E 026°02'111.5
2018-Jun-12 05:00N 40°13' E 026°03'8 0.8
2018-Jun-11 19:11N 40°12' E 026°13'212.3
2018-Jun-11 19:00N 40°13' E 026°10'612.1
2018-Jun-11 18:30N 40°13' E 026°03'1 0.8
2018-Jun-11 17:04N 40°14' E 026°01'112.1
2018-Jun-11 16:57N 40°13' E 026°03'  

Dump ship's entire track history